Time;durP1;ratioP1;P1;durP2;ratioP2;P2;SDS_P1;SDS_P2;PMS_P1;PMS_P2;Temp;Humidity;BMP_temperature;BMP_pressure;BME280_temperature;BME280_humidity;BME280_pressure;Samples;Min_cycle;Max_cycle;Signal;HPM_P1;HPM_P2
2023/11/12 00:02:07;;;;;;;5.10;1.40;;;;;;;;;;5106365;28;20087;-51
2023/11/12 00:04:34;;;;;;;3.50;1.73;;;;;;;;;;5106864;28;20230;-53
2023/11/12 00:07:02;;;;;;;4.47;1.40;;;;;;;;;;5106248;28;20048;-51
2023/11/12 00:09:30;;;;;;;3.05;1.25;;;;;;;;;;5106798;28;20023;-51
2023/11/12 00:11:57;;;;;;;4.00;1.30;;;;;;;;;;5106348;28;20036;-52
2023/11/12 00:14:24;;;;;;;7.18;1.42;;;;;;;;;;5106367;28;20100;-53
2023/11/12 00:16:50;;;;;;;4.80;1.20;;;;;;;;;;5106152;28;20046;-53
2023/11/12 00:19:18;;;;;;;3.65;1.35;;;;;;;;;;5106417;28;20032;-51
2023/11/12 00:21:48;;;;;;;9.05;1.77;;;;;;;;;;5105844;28;20031;-51
2023/11/12 00:24:17;;;;;;;3.20;1.20;;;;;;;;;;5106298;28;20016;-51
2023/11/12 00:26:44;;;;;;;7.82;1.30;;;;;;;;;;5106023;28;20224;-52
2023/11/12 00:29:11;;;;;;;2.47;1.00;;;;;;;;;;5105697;28;20035;-54
2023/11/12 00:31:37;;;;;;;2.97;1.00;;;;;;;;;;5106001;28;20031;-54
2023/11/12 00:34:04;;;;;;;2.13;0.90;;;;;;;;;;5105974;28;20027;-54
2023/11/12 00:36:31;;;;;;;4.97;1.00;;;;;;;;;;5105624;28;20054;-56
2023/11/12 00:38:57;;;;;;;6.95;1.30;;;;;;;;;;5105969;28;20020;-56
2023/11/12 00:41:24;;;;;;;10.05;4.72;;;;;;;;;;5104805;28;20040;-52
2023/11/12 00:43:51;;;;;;;10.20;5.35;;;;;;;;;;5105615;28;20196;-51
2023/11/12 00:46:19;;;;;;;8.13;3.15;;;;;;;;;;5105565;28;20335;-55
2023/11/12 00:48:45;;;;;;;6.05;2.40;;;;;;;;;;5105727;28;20331;-51
2023/11/12 00:51:12;;;;;;;6.57;1.98;;;;;;;;;;5105096;28;20063;-52
2023/11/12 00:53:39;;;;;;;9.25;1.80;;;;;;;;;;5105630;28;20238;-51
2023/11/12 00:56:07;;;;;;;10.10;2.25;;;;;;;;;;5105373;28;20047;-56
2023/11/12 00:58:34;;;;;;;12.68;2.45;;;;;;;;;;5105212;28;20032;-52
2023/11/12 01:01:00;;;;;;;17.20;2.47;;;;;;;;;;5105133;28;20027;-52
2023/11/12 01:03:32;;;;;;;16.45;3.00;;;;;;;;;;5105329;28;20027;-53
2023/11/12 01:06:00;;;;;;;36.00;4.63;;;;;;;;;;5104967;28;20380;-51
2023/11/12 01:08:26;;;;;;;44.40;6.03;;;;;;;;;;5105230;28;20292;-52
2023/11/12 01:10:54;;;;;;;38.67;5.38;;;;;;;;;;5105249;28;20032;-52
2023/11/12 01:13:20;;;;;;;51.42;6.05;;;;;;;;;;5104946;28;20235;-51
2023/11/12 01:15:47;;;;;;;40.65;5.40;;;;;;;;;;5105101;28;20019;-51
2023/11/12 01:18:14;;;;;;;33.83;3.95;;;;;;;;;;5104868;28;20099;-57
2023/11/12 01:20:40;;;;;;;25.30;4.07;;;;;;;;;;5104746;28;20069;-52
2023/11/12 01:23:09;;;;;;;19.52;4.43;;;;;;;;;;5104810;28;20020;-53
2023/11/12 01:25:35;;;;;;;16.42;4.60;;;;;;;;;;5104984;28;20324;-51
2023/11/12 01:28:02;;;;;;;16.20;4.97;;;;;;;;;;5102843;28;20279;-48
2023/11/12 01:30:29;;;;;;;16.08;6.05;;;;;;;;;;5092299;28;20070;-45
2023/11/12 01:32:56;;;;;;;12.23;5.65;;;;;;;;;;5093349;28;20205;-53
2023/11/12 01:35:23;;;;;;;13.15;5.82;;;;;;;;;;5095739;28;20040;-41
2023/11/12 01:37:50;;;;;;;14.90;7.43;;;;;;;;;;5084466;28;20024;-44
2023/11/12 01:40:18;;;;;;;10.52;6.28;;;;;;;;;;5084701;28;20036;-47
2023/11/12 01:42:44;;;;;;;10.98;6.43;;;;;;;;;;5083952;28;20032;-45
2023/11/12 01:45:12;;;;;;;12.25;5.90;;;;;;;;;;5097480;28;20027;-46
2023/11/12 01:47:40;;;;;;;12.68;5.38;;;;;;;;;;5086707;28;20041;-45
2023/11/12 01:50:08;;;;;;;14.02;5.25;;;;;;;;;;5083812;28;20443;-43
2023/11/12 01:52:37;;;;;;;9.75;4.72;;;;;;;;;;5094308;28;20039;-43
2023/11/12 01:55:04;;;;;;;10.57;4.18;;;;;;;;;;5095757;28;20060;-42
2023/11/12 01:57:33;;;;;;;8.07;4.07;;;;;;;;;;5084062;28;20083;-48
2023/11/12 02:00:01;;;;;;;11.70;3.75;;;;;;;;;;5084376;28;20016;-42
2023/11/12 02:02:32;;;;;;;9.32;3.50;;;;;;;;;;5102340;28;20043;-50
2023/11/12 02:04:58;;;;;;;6.68;3.63;;;;;;;;;;5113336;28;20058;-46
2023/11/12 02:07:25;;;;;;;9.20;4.32;;;;;;;;;;5104244;28;20339;-53
2023/11/12 02:09:59;;;;;;;10.27;4.32;;;;;;;;;;5104555;28;20036;-47
2023/11/12 02:12:25;;;;;;;7.57;3.90;;;;;;;;;;5104217;28;20116;-47
2023/11/12 02:14:52;;;;;;;7.13;4.03;;;;;;;;;;5104024;28;20082;-44
2023/11/12 02:17:18;;;;;;;4.28;3.22;;;;;;;;;;5104059;28;20099;-44
2023/11/12 02:19:45;;;;;;;7.45;3.00;;;;;;;;;;5104211;28;20023;-47
2023/11/12 02:22:11;;;;;;;6.82;1.98;;;;;;;;;;5100132;28;20095;-43
2023/11/12 02:24:38;;;;;;;4.47;1.45;;;;;;;;;;5104272;28;20034;-45
2023/11/12 02:27:05;;;;;;;7.85;1.98;;;;;;;;;;5103765;28;20024;-46
2023/11/12 02:29:31;;;;;;;3.75;1.50;;;;;;;;;;5103878;28;20324;-44
2023/11/12 02:31:59;;;;;;;4.85;1.33;;;;;;;;;;5103889;28;20063;-50
2023/11/12 02:34:25;;;;;;;5.43;1.50;;;;;;;;;;5103947;28;20054;-48
2023/11/12 02:36:52;;;;;;;5.03;1.38;;;;;;;;;;5103859;28;20343;-48
2023/11/12 02:39:20;;;;;;;5.45;1.40;;;;;;;;;;5099993;28;20032;-44
2023/11/12 02:41:48;;;;;;;10.50;1.77;;;;;;;;;;5105162;28;20032;-41
2023/11/12 02:44:15;;;;;;;5.43;1.40;;;;;;;;;;5100820;28;20028;-42
2023/11/12 02:46:41;;;;;;;4.75;1.27;;;;;;;;;;5103794;28;20058;-43
2023/11/12 02:49:08;;;;;;;4.68;1.35;;;;;;;;;;5102890;28;20119;-46
2023/11/12 02:51:35;;;;;;;4.43;1.35;;;;;;;;;;5101996;28;20043;-47
2023/11/12 02:54:03;;;;;;;6.00;1.20;;;;;;;;;;5102096;28;20036;-45
2023/11/12 02:56:30;;;;;;;5.13;1.08;;;;;;;;;;5101839;28;20073;-55
2023/11/12 02:58:57;;;;;;;4.85;1.25;;;;;;;;;;5102048;28;20028;-44
2023/11/12 03:01:24;;;;;;;6.63;0.90;;;;;;;;;;5101824;28;20040;-44
2023/11/12 03:03:52;;;;;;;7.72;1.02;;;;;;;;;;5103548;28;20326;-46
2023/11/12 03:06:19;;;;;;;3.97;1.00;;;;;;;;;;5106496;28;20319;-43
2023/11/12 03:08:45;;;;;;;3.78;0.90;;;;;;;;;;5106550;28;20077;-45
2023/11/12 03:11:12;;;;;;;4.57;0.90;;;;;;;;;;5107153;28;20084;-43
2023/11/12 03:13:38;;;;;;;4.25;0.95;;;;;;;;;;5107585;28;20032;-45
2023/11/12 03:16:05;;;;;;;6.72;1.10;;;;;;;;;;5107298;28;20028;-44
2023/11/12 03:18:32;;;;;;;3.25;0.82;;;;;;;;;;5107510;28;20020;-43
2023/11/12 03:20:58;;;;;;;7.20;0.95;;;;;;;;;;5107191;28;20040;-48
2023/11/12 03:23:25;;;;;;;4.38;0.75;;;;;;;;;;5107370;28;20034;-49
2023/11/12 03:25:52;;;;;;;4.05;0.50;;;;;;;;;;5107049;28;20028;-44
2023/11/12 03:28:19;;;;;;;6.15;0.73;;;;;;;;;;5107184;28;20024;-45
2023/11/12 03:30:45;;;;;;;5.00;0.63;;;;;;;;;;5107150;28;20103;-44
2023/11/12 03:33:12;;;;;;;6.32;0.70;;;;;;;;;;5106897;28;20020;-48
2023/11/12 03:35:39;;;;;;;4.20;0.65;;;;;;;;;;5107090;28;20044;-44
2023/11/12 03:38:05;;;;;;;4.72;0.65;;;;;;;;;;5106900;28;20028;-43
2023/11/12 03:40:33;;;;;;;5.72;0.80;;;;;;;;;;5106704;28;20035;-42
2023/11/12 03:43:02;;;;;;;2.17;0.80;;;;;;;;;;5106829;28;20039;-50
2023/11/12 03:45:28;;;;;;;4.13;0.80;;;;;;;;;;5106791;28;20320;-45
2023/11/12 03:47:55;;;;;;;5.03;0.80;;;;;;;;;;5106555;28;20024;-52
2023/11/12 03:50:22;;;;;;;3.55;0.70;;;;;;;;;;5106593;28;20052;-48
2023/11/12 03:52:48;;;;;;;4.25;0.82;;;;;;;;;;5106716;28;20028;-48
2023/11/12 03:55:15;;;;;;;7.70;0.75;;;;;;;;;;5107259;28;20027;-50
2023/11/12 03:57:42;;;;;;;5.40;0.93;;;;;;;;;;5106546;28;20301;-55
2023/11/12 04:00:09;;;;;;;6.40;0.70;;;;;;;;;;5107035;28;20091;-53
2023/11/12 04:02:36;;;;;;;3.53;0.70;;;;;;;;;;5106389;28;20024;-51
2023/11/12 04:05:02;;;;;;;7.35;0.90;;;;;;;;;;5106861;28;20035;-52
2023/11/12 04:07:29;;;;;;;6.57;0.90;;;;;;;;;;5106518;28;20028;-48
2023/11/12 04:09:55;;;;;;;3.58;0.70;;;;;;;;;;5106806;28;20075;-50
2023/11/12 04:12:22;;;;;;;3.17;0.80;;;;;;;;;;5106157;28;20060;-57
2023/11/12 04:14:49;;;;;;;6.85;1.00;;;;;;;;;;5105631;28;20032;-52
2023/11/12 04:17:17;;;;;;;10.45;0.85;;;;;;;;;;5106167;28;20030;-57
2023/11/12 04:19:44;;;;;;;4.75;0.98;;;;;;;;;;5106423;28;20095;-53
2023/11/12 04:22:11;;;;;;;3.25;0.82;;;;;;;;;;5106085;28;20043;-55
2023/11/12 04:24:38;;;;;;;6.10;0.80;;;;;;;;;;5106431;28;20022;-56
2023/11/12 04:27:06;;;;;;;6.45;0.90;;;;;;;;;;5105843;28;20036;-53
2023/11/12 04:29:33;;;;;;;5.18;0.60;;;;;;;;;;5106417;28;20043;-51
2023/11/12 04:32:00;;;;;;;7.75;1.05;;;;;;;;;;5105978;28;20035;-51
2023/11/12 04:34:27;;;;;;;6.03;0.80;;;;;;;;;;5106021;28;20027;-51
2023/11/12 04:36:55;;;;;;;3.90;0.80;;;;;;;;;;5105870;28;20092;-51
2023/11/12 04:39:22;;;;;;;7.43;0.90;;;;;;;;;;5105961;28;20203;-50
2023/11/12 04:41:49;;;;;;;9.00;1.10;;;;;;;;;;5105531;28;20079;-51
2023/11/12 04:44:16;;;;;;;7.43;1.05;;;;;;;;;;5105577;28;20319;-51
2023/11/12 04:46:43;;;;;;;8.57;1.08;;;;;;;;;;5105676;28;20308;-53
2023/11/12 04:49:12;;;;;;;8.15;1.35;;;;;;;;;;5105413;28;20036;-54
2023/11/12 04:51:39;;;;;;;6.65;1.05;;;;;;;;;;5105632;28;20070;-54
2023/11/12 04:54:05;;;;;;;8.20;1.27;;;;;;;;;;5105707;28;20020;-52
2023/11/12 04:56:32;;;;;;;5.22;0.90;;;;;;;;;;5105260;28;20240;-51
2023/11/12 04:58:59;;;;;;;6.10;1.25;;;;;;;;;;5105579;28;20126;-51
2023/11/12 05:01:26;;;;;;;9.10;1.00;;;;;;;;;;5105270;28;20020;-55
2023/11/12 05:03:53;;;;;;;8.48;1.42;;;;;;;;;;5105290;28;20075;-51
2023/11/12 05:06:20;;;;;;;3.50;0.82;;;;;;;;;;5105269;28;20032;-52
2023/11/12 05:08:46;;;;;;;4.32;0.98;;;;;;;;;;5105359;28;20296;-56
2023/11/12 05:11:14;;;;;;;7.07;0.90;;;;;;;;;;5105022;28;20032;-50
2023/11/12 05:13:41;;;;;;;8.10;1.10;;;;;;;;;;5105157;28;20244;-51
2023/11/12 05:16:07;;;;;;;7.57;0.93;;;;;;;;;;5105388;28;20026;-49
2023/11/12 05:18:34;;;;;;;6.70;0.70;;;;;;;;;;5104939;28;20032;-49
2023/11/12 05:21:01;;;;;;;8.35;0.88;;;;;;;;;;5104876;28;20039;-49
2023/11/12 05:23:27;;;;;;;4.10;0.65;;;;;;;;;;5105048;28;20057;-50
2023/11/12 05:25:58;;;;;;;4.93;0.70;;;;;;;;;;5104449;28;20098;-41
2023/11/12 05:28:24;;;;;;;3.42;0.70;;;;;;;;;;5104710;28;20028;-48
2023/11/12 05:30:51;;;;;;;8.43;1.00;;;;;;;;;;5104763;28;20031;-42
2023/11/12 05:33:18;;;;;;;4.22;0.60;;;;;;;;;;5104630;28;20020;-43
2023/11/12 05:35:45;;;;;;;4.32;0.80;;;;;;;;;;5104723;28;20038;-42
2023/11/12 05:38:12;;;;;;;4.72;0.60;;;;;;;;;;5104883;28;20024;-42
2023/11/12 05:40:39;;;;;;;5.88;0.90;;;;;;;;;;5104417;28;20103;-44
2023/11/12 05:43:06;;;;;;;4.88;0.75;;;;;;;;;;5104494;28;20103;-50
2023/11/12 05:45:33;;;;;;;5.20;0.95;;;;;;;;;;5104591;28;20028;-42
2023/11/12 05:48:00;;;;;;;7.97;1.02;;;;;;;;;;5104267;28;20100;-42
2023/11/12 05:50:26;;;;;;;4.60;0.88;;;;;;;;;;5104317;28;20071;-44
2023/11/12 05:52:53;;;;;;;4.03;0.60;;;;;;;;;;5104411;28;20207;-42
2023/11/12 05:55:19;;;;;;;5.30;0.80;;;;;;;;;;5104248;28;20039;-43
2023/11/12 05:57:46;;;;;;;5.57;0.57;;;;;;;;;;5104343;28;20146;-43
2023/11/12 06:00:13;;;;;;;5.05;0.80;;;;;;;;;;5104795;28;20319;-46
2023/11/12 06:02:40;;;;;;;5.80;0.47;;;;;;;;;;5104109;28;20099;-46
2023/11/12 06:05:06;;;;;;;3.00;0.45;;;;;;;;;;5104759;28;20056;-44
2023/11/12 06:07:33;;;;;;;5.25;0.50;;;;;;;;;;5104388;28;20311;-48
2023/11/12 06:10:00;;;;;;;5.18;0.52;;;;;;;;;;5104526;28;20032;-42
2023/11/12 06:12:27;;;;;;;4.93;0.80;;;;;;;;;;5104477;28;20103;-47
2023/11/12 06:14:53;;;;;;;9.85;0.70;;;;;;;;;;5104066;28;20138;-46
2023/11/12 06:17:20;;;;;;;3.72;0.50;;;;;;;;;;5103979;28;20048;-43
2023/11/12 06:19:47;;;;;;;6.13;0.70;;;;;;;;;;5104473;28;20046;-45
2023/11/12 06:22:15;;;;;;;8.55;0.70;;;;;;;;;;5103948;28;20392;-44
2023/11/12 06:24:42;;;;;;;7.88;0.73;;;;;;;;;;5104234;28;20032;-43
2023/11/12 06:27:08;;;;;;;4.60;0.68;;;;;;;;;;5104112;28;20040;-43
2023/11/12 06:29:38;;;;;;;4.30;0.50;;;;;;;;;;5104319;28;20303;-43
2023/11/12 06:32:05;;;;;;;4.30;0.50;;;;;;;;;;5103779;28;20032;-44
2023/11/12 06:34:33;;;;;;;4.97;0.43;;;;;;;;;;5104457;28;20040;-48
2023/11/12 06:36:59;;;;;;;4.75;0.40;;;;;;;;;;5103922;28;20040;-46
2023/11/12 06:39:26;;;;;;;6.03;0.50;;;;;;;;;;5106721;28;20032;-44
2023/11/12 06:41:53;;;;;;;2.97;0.30;;;;;;;;;;5108016;28;20043;-43
2023/11/12 06:44:19;;;;;;;1.65;0.30;;;;;;;;;;5108305;28;20071;-44
2023/11/12 06:46:46;;;;;;;4.55;0.40;;;;;;;;;;5107956;28;20273;-44
2023/11/12 06:49:13;;;;;;;6.35;0.55;;;;;;;;;;5108221;28;20040;-41
2023/11/12 06:51:39;;;;;;;5.22;0.60;;;;;;;;;;5108001;28;20028;-43
2023/11/12 06:54:07;;;;;;;5.40;0.63;;;;;;;;;;5108015;28;20028;-44
2023/11/12 06:56:34;;;;;;;3.72;0.50;;;;;;;;;;5107606;28;20036;-44
2023/11/12 06:59:04;;;;;;;2.75;0.45;;;;;;;;;;5107909;28;20031;-42
2023/11/12 07:01:31;;;;;;;4.45;0.60;;;;;;;;;;5107616;28;20036;-43
2023/11/12 07:03:58;;;;;;;5.10;0.80;;;;;;;;;;5107813;28;20060;-48
2023/11/12 07:06:24;;;;;;;1.45;0.40;;;;;;;;;;5107886;28;20064;-45
2023/11/12 07:08:51;;;;;;;6.80;0.80;;;;;;;;;;5107747;28;20039;-45
2023/11/12 07:11:17;;;;;;;2.70;0.40;;;;;;;;;;5107390;28;20249;-46
2023/11/12 07:13:44;;;;;;;4.80;0.50;;;;;;;;;;5107741;28;20188;-47
2023/11/12 07:16:20;;;;;;;3.80;0.50;;;;;;;;;;5107386;28;20036;-43
2023/11/12 07:18:47;;;;;;;7.53;0.55;;;;;;;;;;5107481;28;20016;-44
2023/11/12 07:21:13;;;;;;;3.50;0.43;;;;;;;;;;5107237;28;20381;-46
2023/11/12 07:23:40;;;;;;;3.45;0.73;;;;;;;;;;5107361;28;20265;-50
2023/11/12 07:26:07;;;;;;;2.20;0.40;;;;;;;;;;5107470;28;20024;-47
2023/11/12 07:28:33;;;;;;;3.47;0.45;;;;;;;;;;5107223;28;20048;-44
2023/11/12 07:31:00;;;;;;;3.45;0.50;;;;;;;;;;5107068;28;20020;-44
2023/11/12 07:33:26;;;;;;;6.07;0.47;;;;;;;;;;5107086;28;20258;-43
2023/11/12 07:35:53;;;;;;;2.67;0.75;;;;;;;;;;5107016;28;20320;-44
2023/11/12 07:38:20;;;;;;;7.93;0.73;;;;;;;;;;5107012;28;20257;-49
2023/11/12 07:40:47;;;;;;;2.78;0.60;;;;;;;;;;5107131;28;20300;-50
2023/11/12 07:43:15;;;;;;;4.95;0.68;;;;;;;;;;5106835;28;20101;-46
2023/11/12 07:45:42;;;;;;;6.90;0.75;;;;;;;;;;5106865;28;20016;-49
2023/11/12 07:48:10;;;;;;;5.57;0.80;;;;;;;;;;5106748;28;20028;-49
2023/11/12 07:50:38;;;;;;;3.22;0.63;;;;;;;;;;5106528;28;20072;-51
2023/11/12 07:53:05;;;;;;;4.30;0.85;;;;;;;;;;5106622;28;20020;-44
2023/11/12 07:55:31;;;;;;;6.65;0.88;;;;;;;;;;5106626;28;20044;-49
2023/11/12 07:57:59;;;;;;;3.65;0.70;;;;;;;;;;5106572;28;20032;-50
2023/11/12 08:00:25;;;;;;;6.60;1.23;;;;;;;;;;5106552;28;20035;-42
2023/11/12 08:02:52;;;;;;;5.22;0.60;;;;;;;;;;5106574;28;20035;-42
2023/11/12 08:05:20;;;;;;;8.10;0.93;;;;;;;;;;5106463;28;20039;-43
2023/11/12 08:07:47;;;;;;;5.38;0.90;;;;;;;;;;5106394;28;20320;-41
2023/11/12 08:10:14;;;;;;;7.68;1.17;;;;;;;;;;5106734;28;20032;-42
2023/11/12 08:12:40;;;;;;;8.23;0.90;;;;;;;;;;5106427;28;20228;-42
2023/11/12 08:15:07;;;;;;;4.75;0.80;;;;;;;;;;5106719;28;20097;-40
2023/11/12 08:17:33;;;;;;;7.05;0.80;;;;;;;;;;5106078;28;20036;-45
2023/11/12 08:20:00;;;;;;;7.70;1.10;;;;;;;;;;5106613;28;20028;-41
2023/11/12 08:22:27;;;;;;;7.53;0.82;;;;;;;;;;5106091;28;20035;-43
2023/11/12 08:24:54;;;;;;;3.33;0.60;;;;;;;;;;5106340;28;20028;-49
2023/11/12 08:27:22;;;;;;;8.75;0.60;;;;;;;;;;5106003;28;20087;-42
2023/11/12 08:29:49;;;;;;;6.30;0.80;;;;;;;;;;5105011;28;20208;-50
2023/11/12 08:32:16;;;;;;;4.10;0.40;;;;;;;;;;5105832;28;20032;-45
2023/11/12 08:34:43;;;;;;;4.70;0.65;;;;;;;;;;5106251;28;20061;-47
2023/11/12 08:37:10;;;;;;;3.00;0.80;;;;;;;;;;5105867;28;20024;-50
2023/11/12 08:39:36;;;;;;;5.97;0.50;;;;;;;;;;5105943;28;20038;-46
2023/11/12 08:42:04;;;;;;;5.82;0.60;;;;;;;;;;5105713;28;20042;-46
2023/11/12 08:44:30;;;;;;;5.70;0.60;;;;;;;;;;5105611;28;20020;-46
2023/11/12 08:46:57;;;;;;;2.42;0.50;;;;;;;;;;5105520;28;20166;-47
2023/11/12 08:49:25;;;;;;;5.30;0.68;;;;;;;;;;5105631;28;20081;-47
2023/11/12 08:51:52;;;;;;;5.82;0.70;;;;;;;;;;5105869;28;20034;-50
2023/11/12 08:54:18;;;;;;;9.63;0.60;;;;;;;;;;5105645;28;20077;-47
2023/11/12 08:56:45;;;;;;;2.58;0.30;;;;;;;;;;5105537;28;20085;-45
2023/11/12 08:59:11;;;;;;;3.22;0.43;;;;;;;;;;5105682;28;20023;-51
2023/11/12 09:01:38;;;;;;;2.63;0.43;;;;;;;;;;5104512;28;20040;-46
2023/11/12 09:04:05;;;;;;;3.90;0.30;;;;;;;;;;5105546;28;20089;-44
2023/11/12 09:06:31;;;;;;;4.88;0.40;;;;;;;;;;5105271;28;20042;-44
2023/11/12 09:08:58;;;;;;;3.33;0.45;;;;;;;;;;5105257;28;20097;-46
2023/11/12 09:11:25;;;;;;;1.98;0.32;;;;;;;;;;5105166;28;20020;-44
2023/11/12 09:13:51;;;;;;;4.57;0.47;;;;;;;;;;5105355;28;20024;-47
2023/11/12 09:16:18;;;;;;;5.00;0.60;;;;;;;;;;5105047;28;20051;-43
2023/11/12 09:18:45;;;;;;;3.25;0.32;;;;;;;;;;5105143;28;20031;-44
2023/11/12 09:21:11;;;;;;;3.83;0.50;;;;;;;;;;5104944;28;20065;-45
2023/11/12 09:23:39;;;;;;;4.68;0.55;;;;;;;;;;5104925;28;20028;-50
2023/11/12 09:26:05;;;;;;;2.17;0.40;;;;;;;;;;5103725;28;20095;-45
2023/11/12 09:28:32;;;;;;;3.13;0.40;;;;;;;;;;5105018;28;20016;-46
2023/11/12 09:30:58;;;;;;;2.10;0.45;;;;;;;;;;5104819;28;20036;-49
2023/11/12 09:33:26;;;;;;;4.35;0.38;;;;;;;;;;5104828;28;20339;-51
2023/11/12 09:35:52;;;;;;;2.58;0.50;;;;;;;;;;5104923;28;20024;-45
2023/11/12 09:38:19;;;;;;;5.07;0.47;;;;;;;;;;5104703;28;20028;-53
2023/11/12 09:40:46;;;;;;;3.85;0.50;;;;;;;;;;5104503;28;20270;-52
2023/11/12 09:43:13;;;;;;;2.92;0.47;;;;;;;;;;5104561;28;20027;-51
2023/11/12 09:45:43;;;;;;;4.07;0.60;;;;;;;;;;5104642;28;20032;-51
2023/11/12 09:48:21;;;;;;;4.88;0.70;;;;;;;;;;5104622;28;20036;-52
2023/11/12 09:50:48;;;;;;;2.72;0.40;;;;;;;;;;5104448;28;20086;-52
2023/11/12 09:53:15;;;;;;;5.18;0.70;;;;;;;;;;5104316;28;20059;-51
2023/11/12 09:55:45;;;;;;;4.60;0.60;;;;;;;;;;5104472;28;20024;-51
2023/11/12 09:58:11;;;;;;;8.90;1.02;;;;;;;;;;5104304;28;20035;-55
2023/11/12 10:00:38;;;;;;;4.72;0.60;;;;;;;;;;5104180;28;20251;-53
2023/11/12 10:03:10;;;;;;;4.95;0.60;;;;;;;;;;5104201;28;20315;-56
2023/11/12 10:05:36;;;;;;;;;;;;;;;;;;5104647;28;20062;-51
2023/11/12 10:08:05;;;;;;;1.95;0.50;;;;;;;;;;5104053;28;19945;-51
2023/11/12 10:10:31;;;;;;;3.42;0.60;;;;;;;;;;5104174;28;20220;-52
2023/11/12 10:12:58;;;;;;;6.25;0.60;;;;;;;;;;5103165;28;20031;-52
2023/11/12 10:15:30;;;;;;;6.35;0.80;;;;;;;;;;5104015;28;20372;-51
2023/11/12 10:17:57;;;;;;;4.72;0.70;;;;;;;;;;5104005;28;20056;-51
2023/11/12 10:20:25;;;;;;;4.55;1.02;;;;;;;;;;5101874;28;20024;-42
2023/11/12 10:22:53;;;;;;;5.22;1.00;;;;;;;;;;5111348;28;20406;-42
2023/11/12 10:25:36;;;;;;;2.88;0.73;;;;;;;;;;5113709;28;20032;-43
2023/11/12 10:28:04;;;;;;;5.60;1.27;;;;;;;;;;5092432;28;20366;-43
2023/11/12 10:30:31;;;;;;;6.43;1.25;;;;;;;;;;5090307;28;20143;-43
2023/11/12 10:33:14;;;;;;;4.93;1.10;;;;;;;;;;5103915;28;20027;-41
2023/11/12 10:35:40;;;;;;;4.00;1.00;;;;;;;;;;5103951;28;20081;-42
2023/11/12 10:38:07;;;;;;;4.40;1.10;;;;;;;;;;5103907;28;20051;-42
2023/11/12 10:40:34;;;;;;;4.70;0.85;;;;;;;;;;5103694;28;20035;-49
2023/11/12 10:43:07;;;;;;;9.95;1.15;;;;;;;;;;5103871;28;20328;-42
2023/11/12 10:45:41;;;;;;;7.20;0.90;;;;;;;;;;5104053;28;20086;-44
2023/11/12 10:48:10;;;;;;;4.72;1.00;;;;;;;;;;5103738;28;20028;-43
2023/11/12 10:50:41;;;;;;;9.82;1.27;;;;;;;;;;5103729;28;20213;-44
2023/11/12 10:53:08;;;;;;;6.15;1.30;;;;;;;;;;5103644;28;20036;-42
2023/11/12 10:55:36;;;;;;;9.05;2.08;;;;;;;;;;5103755;28;20098;-42
2023/11/12 10:58:04;;;;;;;6.05;1.42;;;;;;;;;;5103729;28;20016;-41
2023/11/12 11:00:31;;;;;;;7.82;1.50;;;;;;;;;;5101263;28;20077;-42
2023/11/12 11:02:58;;;;;;;3.53;1.20;;;;;;;;;;5103569;28;20024;-42
2023/11/12 11:05:25;;;;;;;11.15;1.67;;;;;;;;;;5103734;28;20197;-44
2023/11/12 11:07:52;;;;;;;10.20;1.58;;;;;;;;;;5103556;28;20258;-41
2023/11/12 11:10:19;;;;;;;8.68;1.70;;;;;;;;;;5101843;28;20376;-41
2023/11/12 11:12:46;;;;;;;8.30;1.10;;;;;;;;;;5102101;28;20050;-46
2023/11/12 11:15:31;;;;;;;8.50;1.55;;;;;;;;;;5103351;28;20321;-42
2023/11/12 11:17:58;;;;;;;8.55;1.38;;;;;;;;;;5103522;28;20213;-46
2023/11/12 11:20:25;;;;;;;10.15;1.60;;;;;;;;;;5101672;28;20044;-42
2023/11/12 11:22:52;;;;;;;10.55;1.65;;;;;;;;;;5102681;28;20103;-42
2023/11/12 11:25:25;;;;;;;11.30;1.75;;;;;;;;;;5105699;28;20024;-42
2023/11/12 11:27:51;;;;;;;;;;;;;;;;;;5107478;28;20346;-42
2023/11/12 11:30:18;;;;;;;7.07;1.23;;;;;;;;;;5105776;28;19904;-40
2023/11/12 11:32:54;;;;;;;6.80;1.33;;;;;;;;;;5107027;28;20047;-43
2023/11/12 11:35:24;;;;;;;8.95;1.50;;;;;;;;;;5106874;28;20106;-43
2023/11/12 11:38:12;;;;;;;6.72;1.35;;;;;;;;;;5107176;28;20259;-44
2023/11/12 11:40:42;;;;;;;4.53;1.10;;;;;;;;;;5104889;28;20224;-46
2023/11/12 11:43:24;;;;;;;7.38;1.20;;;;;;;;;;5106816;28;20032;-44
2023/11/12 11:46:09;;;;;;;8.50;1.40;;;;;;;;;;5107000;28;20036;-43
2023/11/12 11:48:37;;;;;;;10.25;1.55;;;;;;;;;;5106897;28;20027;-44
2023/11/12 11:51:23;;;;;;;7.65;1.60;;;;;;;;;;5106531;28;20115;-42
2023/11/12 11:53:50;;;;;;;4.55;1.52;;;;;;;;;;5106914;28;20028;-42
2023/11/12 11:56:19;;;;;;;6.13;1.50;;;;;;;;;;5106556;28;20059;-43
2023/11/12 11:58:52;;;;;;;5.57;1.20;;;;;;;;;;5106524;28;20027;-42
2023/11/12 12:01:19;;;;;;;7.47;1.30;;;;;;;;;;5112059;28;20032;-41
2023/11/12 12:03:45;;;;;;;5.00;1.30;;;;;;;;;;5126767;28;20027;-42
2023/11/12 12:06:21;;;;;;;10.23;1.20;;;;;;;;;;5126928;27;20020;-45
2023/11/12 12:08:58;;;;;;;4.63;1.00;;;;;;;;;;5127021;28;20348;-49
2023/11/12 12:11:26;;;;;;;7.00;1.13;;;;;;;;;;5126929;28;20032;-46
2023/11/12 12:13:59;;;;;;;6.28;1.25;;;;;;;;;;5126697;27;20111;-45
2023/11/12 12:16:30;;;;;;;5.97;1.10;;;;;;;;;;5126538;28;20276;-49
2023/11/12 12:18:57;;;;;;;7.18;1.40;;;;;;;;;;5126812;28;20023;-42
2023/11/12 12:21:24;;;;;;;8.82;1.15;;;;;;;;;;5126544;28;20036;-47
2023/11/12 12:23:50;;;;;;;6.00;1.05;;;;;;;;;;5126573;28;20027;-45
2023/11/12 12:26:21;;;;;;;5.22;1.00;;;;;;;;;;5126530;28;20040;-42
2023/11/12 12:28:48;;;;;;;7.55;1.02;;;;;;;;;;5126612;28;20084;-48
2023/11/12 12:31:14;;;;;;;12.77;1.58;;;;;;;;;;5126240;28;20023;-45
2023/11/12 12:33:41;;;;;;;8.90;0.90;;;;;;;;;;5126644;28;20282;-48
2023/11/12 12:36:11;;;;;;;6.95;1.17;;;;;;;;;;5125263;28;20036;-54
2023/11/12 12:38:38;;;;;;;6.60;1.70;;;;;;;;;;5126200;27;20015;-48
2023/11/12 12:41:05;;;;;;;7.45;1.70;;;;;;;;;;5125982;27;20027;-48
2023/11/12 12:43:50;;;;;;;9.18;1.90;;;;;;;;;;5126109;28;20037;-46
2023/11/12 12:46:17;;;;;;;8.52;1.45;;;;;;;;;;5126107;28;20049;-42
2023/11/12 12:48:54;;;;;;;7.32;1.38;;;;;;;;;;5126259;28;20347;-45
2023/11/12 12:51:23;;;;;;;6.38;1.08;;;;;;;;;;5120537;28;20039;-43
2023/11/12 12:53:50;;;;;;;13.98;1.40;;;;;;;;;;5094497;28;20036;-44
2023/11/12 12:56:17;;;;;;;8.88;1.40;;;;;;;;;;5084950;28;20020;-56
2023/11/12 12:58:46;;;;;;;3.75;0.93;;;;;;;;;;5085143;28;20032;-43
2023/11/12 13:01:14;;;;;;;5.30;0.88;;;;;;;;;;5084963;28;20032;-42
2023/11/12 13:03:50;;;;;;;4.60;1.20;;;;;;;;;;5085085;28;20028;-49
2023/11/12 13:06:17;;;;;;;8.40;1.27;;;;;;;;;;5085030;28;20032;-43
2023/11/12 13:08:43;;;;;;;4.38;1.10;;;;;;;;;;5085083;28;20233;-49
2023/11/12 13:11:11;;;;;;;2.85;0.90;;;;;;;;;;5084827;28;20065;-45
2023/11/12 13:13:38;;;;;;;4.93;1.20;;;;;;;;;;5084943;28;20028;-42
2023/11/12 13:16:09;;;;;;;4.78;1.50;;;;;;;;;;5084790;28;20039;-45
2023/11/12 13:18:38;;;;;;;3.00;1.60;;;;;;;;;;5084795;28;20042;-43
2023/11/12 13:21:06;;;;;;;3.22;1.48;;;;;;;;;;5084754;28;20162;-43
2023/11/12 13:23:35;;;;;;;3.03;1.20;;;;;;;;;;5084788;28;20033;-43
2023/11/12 13:26:02;;;;;;;4.20;1.20;;;;;;;;;;5084654;28;20286;-42
2023/11/12 13:28:29;;;;;;;8.38;1.38;;;;;;;;;;5084817;28;20037;-50
2023/11/12 13:30:56;;;;;;;63.92;3.65;;;;;;;;;;5084544;28;20220;-44
2023/11/12 13:33:23;;;;;;;52.20;2.95;;;;;;;;;;5084772;28;20031;-51
2023/11/12 13:35:58;;;;;;;89.80;5.72;;;;;;;;;;5084603;28;20044;-50
2023/11/12 13:38:27;;;;;;;47.42;3.33;;;;;;;;;;5084339;28;20335;-49
2023/11/12 13:40:54;;;;;;;41.13;3.20;;;;;;;;;;5084320;28;20036;-50
2023/11/12 13:43:21;;;;;;;34.88;2.50;;;;;;;;;;5084162;28;20092;-53
2023/11/12 13:45:48;;;;;;;15.15;1.67;;;;;;;;;;5084174;28;20028;-50
2023/11/12 13:48:15;;;;;;;20.67;1.70;;;;;;;;;;5084063;28;20297;-54
2023/11/12 13:50:43;;;;;;;9.02;1.38;;;;;;;;;;5094292;28;20217;-51
2023/11/12 13:53:11;;;;;;;9.60;0.93;;;;;;;;;;5084541;28;20083;-50
2023/11/12 13:55:40;;;;;;;8.35;1.25;;;;;;;;;;5084221;28;20386;-51
2023/11/12 13:58:13;;;;;;;7.90;0.93;;;;;;;;;;5084388;28;20307;-55
2023/11/12 14:00:42;;;;;;;9.82;1.15;;;;;;;;;;5083932;28;20032;-54
2023/11/12 14:03:09;;;;;;;2.72;0.70;;;;;;;;;;5084034;28;20220;-48
2023/11/12 14:05:37;;;;;;;2.45;0.43;;;;;;;;;;5084069;28;20024;-44
2023/11/12 14:08:04;;;;;;;2.05;0.60;;;;;;;;;;5083913;28;20356;-45
2023/11/12 14:10:31;;;;;;;2.78;0.70;;;;;;;;;;5097274;28;20032;-43
2023/11/12 14:12:59;;;;;;;2.00;0.50;;;;;;;;;;5104440;28;20024;-52
2023/11/12 14:15:27;;;;;;;2.35;0.60;;;;;;;;;;5104092;28;20030;-52
2023/11/12 14:17:54;;;;;;;1.35;0.70;;;;;;;;;;5104065;28;20055;-46
2023/11/12 14:20:22;;;;;;;6.45;0.93;;;;;;;;;;5104122;28;20354;-45
2023/11/12 14:22:50;;;;;;;4.32;0.90;;;;;;;;;;5103936;28;20051;-49
2023/11/12 14:25:21;;;;;;;3.03;0.80;;;;;;;;;;5104606;28;20095;-42
2023/11/12 14:27:48;;;;;;;1.73;0.80;;;;;;;;;;5104209;28;20024;-52
2023/11/12 14:30:18;;;;;;;1.02;0.60;;;;;;;;;;5104572;28;20087;-45
2023/11/12 14:32:45;;;;;;;2.45;0.77;;;;;;;;;;5103782;28;20266;-57
2023/11/12 14:35:12;;;;;;;1.98;0.70;;;;;;;;;;5089876;28;20079;-50
2023/11/12 14:37:39;;;;;;;2.58;0.90;;;;;;;;;;5094001;28;20027;-51
2023/11/12 14:40:14;;;;;;;2.05;0.68;;;;;;;;;;5098939;28;20047;-54
2023/11/12 14:42:41;;;;;;;3.85;0.95;;;;;;;;;;5100643;28;20031;-51
2023/11/12 14:45:11;;;;;;;3.10;0.85;;;;;;;;;;5103757;28;20091;-52